< < Back
Terminal Aerodrome Forecast


Current Version              Previous Versions:   1  2  3  4  5  6  7  8  9  

Terminal Aerodrome Forecast

303
FTUS44 KMRX 262110 AAA
TAFTYS
TAF AMD
KTYS 262110Z 2621/2718 23018G26KT P6SM VCTS SCT040CB BKN070
     FM270000 25015G25KT P6SM VCSH SCT025 BKN035
     FM270200 31015G25KT 4SM -SHRA OVC025
     FM270300 34012KT 5SM -RA BR OVC015
     FM270700 35010KT P6SM OVC010
     FM271400 35010KT P6SM BKN025=



Latest METAR

295
SAUS80 KWBC 271000 RRB
MTRTYS
METAR KTYS 270953Z 01011KT 10SM -RA SCT017 OVC023 06/03 A2983 RMK AO2
RAE22B48 SLP096 P0000 T00560033


USA.gov is the U.S. government's official web portal to all federal, state and local government web resources and services.